Time;durP1;ratioP1;P1;durP2;ratioP2;P2;SDS_P1;SDS_P2;PMS_P1;PMS_P2;Temp;Humidity;BMP_temperature;BMP_pressure;BME280_temperature;BME280_humidity;BME280_pressure;Samples;Min_cycle;Max_cycle;Signal;HPM_P1;HPM_P2
2022/04/02 00:00:28;;;;;;;18.42;6.13;;;;;;;12.30;62.28;99027.22;5007723;28;102464;-51
2022/04/02 00:02:54;;;;;;;16.15;6.40;;;;;;;12.30;62.33;99024.50;4992450;28;102259;-50
2022/04/02 00:05:21;;;;;;;16.08;6.40;;;;;;;12.30;62.40;99026.38;4989937;28;103914;-51
2022/04/02 00:07:47;;;;;;;17.85;6.03;;;;;;;12.30;62.54;99034.56;5000432;28;103530;-50
2022/04/02 00:10:14;;;;;;;16.08;6.03;;;;;;;12.31;62.12;99038.94;4990011;28;102093;-50
2022/04/02 00:12:43;;;;;;;16.80;5.80;;;;;;;12.31;62.45;99028.00;4991568;28;102326;-50
2022/04/02 00:15:10;;;;;;;17.23;6.30;;;;;;;12.31;62.12;99022.56;4989832;28;103935;-50
2022/04/02 00:17:37;;;;;;;16.00;6.68;;;;;;;12.31;62.07;99011.66;4995922;28;102415;-50
2022/04/02 00:20:05;;;;;;;16.38;6.45;;;;;;;12.31;62.28;99017.09;4991890;28;102523;-50
2022/04/02 00:22:32;;;;;;;14.55;6.15;;;;;;;12.31;62.26;99011.66;5006753;28;102224;-50
2022/04/02 00:25:00;;;;;;;16.52;5.90;;;;;;;12.30;62.60;99010.84;5006478;28;105347;-50
2022/04/02 00:27:26;;;;;;;16.13;5.45;;;;;;;12.31;62.27;99017.91;4999149;28;102320;-51
2022/04/02 00:29:54;;;;;;;16.15;5.88;;;;;;;12.31;62.36;99011.66;5014202;28;102581;-51
2022/04/02 00:32:21;;;;;;;12.95;5.68;;;;;;;12.31;62.12;99017.91;5014295;28;103164;-51
2022/04/02 00:34:49;;;;;;;15.20;6.25;;;;;;;12.32;62.34;99024.16;5004002;28;103888;-51
2022/04/02 00:37:16;;;;;;;13.45;5.82;;;;;;;12.31;62.46;99017.09;4997064;28;102350;-50
2022/04/02 00:39:42;;;;;;;14.75;6.00;;;;;;;12.31;62.23;99011.66;5001600;28;103079;-50
2022/04/02 00:42:09;;;;;;;14.45;5.88;;;;;;;12.32;62.43;99018.69;4996326;28;102127;-50
2022/04/02 00:44:36;;;;;;;13.45;5.60;;;;;;;12.31;62.64;99014.38;5003368;28;102898;-51
2022/04/02 00:47:05;;;;;;;13.55;5.90;;;;;;;12.31;62.46;99015.16;5007871;28;102204;-51
2022/04/02 00:49:31;;;;;;;13.80;5.53;;;;;;;12.31;62.78;99017.91;4999194;28;102330;-51
2022/04/02 00:51:58;;;;;;;13.98;5.20;;;;;;;12.31;62.56;99028.00;4996174;28;102535;-51
2022/04/02 00:54:24;;;;;;;16.35;5.97;;;;;;;12.31;62.31;99039.72;5007083;28;103887;-50
2022/04/02 00:56:52;;;;;;;12.75;5.60;;;;;;;12.31;62.58;99041.66;5002432;28;102079;-50
2022/04/02 00:59:19;;;;;;;13.70;5.47;;;;;;;12.32;62.66;99045.97;5011274;28;102152;-50
2022/04/02 01:01:46;;;;;;;16.88;6.55;;;;;;;12.31;62.39;99050.63;5009945;28;104052;-50
2022/04/02 01:04:17;;;;;;;10.18;5.45;;;;;;;12.32;62.32;99048.69;4992699;28;103846;-50
2022/04/02 01:06:50;;;;;;;15.32;6.32;;;;;;;12.32;62.71;99054.16;4992991;28;101907;-50
2022/04/02 01:09:17;;;;;;;14.38;5.53;;;;;;;12.31;62.53;99045.19;5000989;28;102113;-50
2022/04/02 01:11:46;;;;;;;15.50;5.72;;;;;;;12.32;62.65;99038.59;5012440;28;103612;-50
2022/04/02 01:14:13;;;;;;;16.27;5.75;;;;;;;12.32;62.67;99037.78;5012520;28;103931;-51
2022/04/02 01:16:40;;;;;;;13.93;5.57;;;;;;;12.33;62.63;99039.38;5013644;28;102356;-51
2022/04/02 01:19:20;;;;;;;11.30;5.38;;;;;;;12.30;62.69;99020.94;4993301;28;101965;-50
2022/04/02 01:21:49;;;;;;;17.02;5.95;;;;;;;12.31;62.63;99028.81;5002882;28;102658;-50
2022/04/02 01:24:17;;;;;;;11.65;5.03;;;;;;;12.32;62.66;99018.69;5013013;28;102959;-51
2022/04/02 01:26:45;;;;;;;13.20;5.53;;;;;;;12.32;62.70;99019.50;5011988;28;101950;-50
2022/04/02 01:29:12;;;;;;;16.75;5.80;;;;;;;12.31;62.79;99023.34;5013025;28;101840;-51
2022/04/02 01:31:43;;;;;;;12.10;5.35;;;;;;;12.32;62.72;99015.97;5009491;28;102278;-51
2022/04/02 01:34:09;;;;;;;14.02;5.25;;;;;;;12.32;62.77;99024.16;5012419;28;103860;-52
2022/04/02 01:36:37;;;;;;;11.37;4.87;;;;;;;12.32;62.77;99035.06;5012924;28;102339;-51
2022/04/02 01:39:05;;;;;;;11.10;5.28;;;;;;;12.33;62.55;99047.56;5009490;28;102553;-51
2022/04/02 01:41:34;;;;;;;16.70;5.22;;;;;;;12.32;62.66;99041.31;5008634;28;102284;-51
2022/04/02 01:44:00;;;;;;;13.45;5.20;;;;;;;12.32;62.64;99035.06;5012156;28;103818;-51
2022/04/02 01:46:27;;;;;;;14.27;5.75;;;;;;;12.32;62.78;99045.97;5013177;28;101855;-51
2022/04/02 01:48:53;;;;;;;10.75;4.97;;;;;;;12.32;62.77;99040.53;5013246;28;102046;-51
2022/04/02 01:51:20;;;;;;;12.27;5.50;;;;;;;12.32;62.83;99045.97;5011883;28;102078;-51
2022/04/02 01:53:46;;;;;;;12.38;5.53;;;;;;;12.32;62.67;99052.22;5012246;28;103860;-51
2022/04/02 01:56:14;;;;;;;11.95;5.10;;;;;;;12.32;62.76;99056.88;5013008;28;102523;-50
2022/04/02 01:58:42;;;;;;;10.90;5.03;;;;;;;12.32;62.88;99059.63;5009615;28;101967;-51
2022/04/02 02:01:08;;;;;;;12.55;5.28;;;;;;;12.33;62.87;99061.22;5005946;28;102371;-51
2022/04/02 02:03:36;;;;;;;10.77;5.10;;;;;;;12.32;62.82;99068.59;4992054;28;103935;-51
2022/04/02 02:06:03;;;;;;;13.45;5.07;;;;;;;12.33;62.81;99074.84;4992676;28;102567;-50
2022/04/02 02:08:29;;;;;;;11.23;4.88;;;;;;;12.32;62.92;99071.31;4991824;28;101900;-52
2022/04/02 02:10:58;;;;;;;11.77;4.93;;;;;;;12.33;62.98;99069.41;4996713;28;102286;-51
2022/04/02 02:13:26;;;;;;;8.98;4.50;;;;;;;12.33;62.96;99069.41;5012288;28;103901;-51
2022/04/02 02:15:53;;;;;;;10.20;4.55;;;;;;;12.32;62.67;99065.88;5011882;28;102406;-51
2022/04/02 02:18:19;;;;;;;13.75;4.75;;;;;;;12.32;62.83;99067.78;5012099;28;102024;-50
2022/04/02 02:20:46;;;;;;;10.45;4.93;;;;;;;12.32;62.85;99062.34;5011045;28;104261;-50
2022/04/02 02:23:13;;;;;;;12.38;4.75;;;;;;;12.32;62.76;99073.25;5010590;28;104160;-51
2022/04/02 02:25:40;;;;;;;11.00;4.53;;;;;;;12.32;63.01;99067.78;5012079;28;101948;-50
2022/04/02 02:28:08;;;;;;;11.88;4.57;;;;;;;12.31;62.91;99056.09;5003845;28;103555;-51
2022/04/02 02:30:36;;;;;;;7.78;4.35;;;;;;;12.31;63.13;99072.47;4992575;28;102430;-50
2022/04/02 02:35:51;;;;;;;10.77;5.10;;;;;;;12.32;63.02;99082.22;5011826;28;102342;-50
2022/04/02 02:38:21;;;;;;;11.25;4.57;;;;;;;12.32;63.01;99095.88;5001255;28;102370;-51
2022/04/02 02:40:49;;;;;;;8.25;3.88;;;;;;;12.32;63.02;99092.34;5011921;28;102298;-51
2022/04/02 02:43:16;;;;;;;8.85;4.05;;;;;;;12.31;63.06;99094.28;5010933;28;103382;-50
2022/04/02 02:45:44;;;;;;;10.55;4.38;;;;;;;12.32;63.16;99095.06;5003402;28;102458;-50
2022/04/02 02:48:11;;;;;;;8.38;4.20;;;;;;;12.32;63.02;99095.06;4991954;28;102345;-50
2022/04/02 02:50:38;;;;;;;8.13;4.47;;;;;;;12.32;63.24;99082.22;4991960;28;102319;-50
2022/04/02 02:53:05;;;;;;;8.25;3.22;;;;;;;12.32;62.99;99084.97;4991254;28;103697;-51
2022/04/02 02:55:32;;;;;;;8.88;4.55;;;;;;;12.31;63.19;99072.47;4991528;28;102001;-51
2022/04/02 02:57:59;;;;;;;12.10;4.45;;;;;;;12.31;63.45;99071.66;5010054;28;102907;-51
2022/04/02 03:00:26;;;;;;;8.23;3.70;;;;;;;12.33;63.13;99072.13;5030242;28;102046;-51
2022/04/02 03:02:54;;;;;;;7.20;4.45;;;;;;;12.32;63.10;99073.25;5031107;27;103923;-50
2022/04/02 03:05:22;;;;;;;8.00;4.00;;;;;;;12.32;63.07;99059.63;5016465;27;102008;-51
2022/04/02 03:07:49;;;;;;;9.90;4.18;;;;;;;12.32;63.23;99060.41;4990937;28;102441;-51
2022/04/02 03:10:35;;;;;;;6.32;3.78;;;;;;;12.31;63.34;99055.28;4992031;28;102260;-51
2022/04/02 03:13:02;;;;;;;10.85;3.97;;;;;;;12.31;63.38;99049.84;4991181;28;103965;-51
2022/04/02 03:15:29;;;;;;;7.88;3.58;;;;;;;12.31;63.39;99053.34;5003008;28;102658;-51
2022/04/02 03:18:03;;;;;;;7.75;3.72;;;;;;;12.32;63.27;99056.88;4991294;28;102374;-51
2022/04/02 03:20:30;;;;;;;7.70;3.90;;;;;;;12.31;63.35;99058.03;5009953;28;102447;-51
2022/04/02 03:22:57;;;;;;;7.25;3.80;;;;;;;12.31;63.40;99055.28;5010554;28;103917;-50
2022/04/02 03:25:24;;;;;;;8.10;3.80;;;;;;;12.32;63.42;99062.34;5006752;28;103318;-51
2022/04/02 03:27:51;;;;;;;8.15;3.95;;;;;;;12.31;63.34;99064.28;4990359;28;101807;-51
2022/04/02 03:30:20;;;;;;;6.57;3.50;;;;;;;12.31;63.33;99066.19;5003942;28;102263;-51
2022/04/02 03:32:51;;;;;;;5.43;3.38;;;;;;;12.30;63.52;99075.50;5010875;28;103818;-51
2022/04/02 03:35:20;;;;;;;8.90;3.13;;;;;;;12.32;63.53;99078.72;5009811;28;102254;-51
2022/04/02 03:37:48;;;;;;;8.30;4.25;;;;;;;12.32;63.14;99086.88;4995748;28;102310;-51
2022/04/02 03:40:18;;;;;;;6.45;3.50;;;;;;;12.31;63.38;99082.56;4993063;28;102156;-51
2022/04/02 03:42:46;;;;;;;9.82;3.85;;;;;;;12.30;63.21;99081.78;4990312;28;103957;-50
2022/04/02 03:45:15;;;;;;;9.00;3.67;;;;;;;12.30;63.52;99081.78;5007460;28;102196;-51
2022/04/02 03:47:57;;;;;;;7.90;4.38;;;;;;;12.31;63.35;99082.56;5009431;28;102590;-51
2022/04/02 03:50:25;;;;;;;8.10;4.15;;;;;;;12.30;63.54;99080.94;5012660;28;102141;-51
2022/04/02 03:52:53;;;;;;;9.18;3.72;;;;;;;12.29;63.63;99080.16;5010357;28;103993;-50
2022/04/02 03:55:19;;;;;;;7.70;3.55;;;;;;;12.31;63.64;99082.56;5011342;28;102318;-51
2022/04/02 03:57:47;;;;;;;6.65;3.97;;;;;;;12.29;63.57;99082.06;4998698;28;102385;-51
2022/04/02 04:00:15;;;;;;;8.18;3.97;;;;;;;12.30;63.57;99081.78;5007088;28;102035;-50
2022/04/02 04:02:42;;;;;;;9.23;4.57;;;;;;;12.30;63.70;99080.94;5013171;28;103993;-50
2022/04/02 04:05:09;;;;;;;8.88;4.32;;;;;;;12.30;63.83;99075.50;5017126;28;102233;-50
2022/04/02 04:07:38;;;;;;;7.03;4.32;;;;;;;12.30;63.58;99070.84;5014094;28;102420;-51
2022/04/02 04:10:05;;;;;;;9.60;4.07;;;;;;;12.30;63.58;99080.94;5016904;28;101961;-50
2022/04/02 04:12:34;;;;;;;6.80;3.97;;;;;;;12.30;63.48;99079.03;5013472;28;103862;-50
2022/04/02 04:15:00;;;;;;;10.00;4.70;;;;;;;12.30;63.60;99080.94;5014788;28;102296;-50
2022/04/02 04:17:27;;;;;;;9.00;4.28;;;;;;;12.30;63.57;99080.94;5012524;28;102233;-50
2022/04/02 04:19:54;;;;;;;12.07;4.55;;;;;;;12.29;63.16;99084.81;5015568;28;102326;-51
2022/04/02 04:22:20;;;;;;;9.57;4.30;;;;;;;12.30;63.31;99086.41;5013591;28;104016;-51
2022/04/02 04:24:48;;;;;;;10.45;4.38;;;;;;;12.30;63.35;99097.31;5014191;28;102191;-51
2022/04/02 04:27:15;;;;;;;8.30;3.75;;;;;;;12.31;63.56;99093.47;5004830;28;102108;-50
2022/04/02 04:29:42;;;;;;;8.15;3.85;;;;;;;12.31;63.43;99094.28;5008763;28;102381;-51
2022/04/02 04:32:09;;;;;;;6.97;3.78;;;;;;;12.31;63.53;99098.94;5013567;28;103966;-50
2022/04/02 04:34:35;;;;;;;8.43;3.83;;;;;;;12.32;63.63;99089.63;5012854;28;101997;-51
2022/04/02 04:37:03;;;;;;;9.55;4.32;;;;;;;12.31;63.80;99088.81;5007130;28;102663;-51
2022/04/02 04:39:29;;;;;;;10.25;3.97;;;;;;;12.33;63.71;99096.66;5015442;28;102231;-51
2022/04/02 04:41:57;;;;;;;7.53;4.15;;;;;;;12.33;63.66;99102.13;5013178;28;103720;-51
2022/04/02 04:44:23;;;;;;;9.07;3.67;;;;;;;12.32;63.52;99095.06;5016983;28;102020;-51
2022/04/02 04:46:51;;;;;;;10.45;4.05;;;;;;;12.33;63.61;99107.56;5023010;28;101678;-50
2022/04/02 04:49:18;;;;;;;8.32;3.92;;;;;;;12.32;63.61;99109.50;5023771;28;102192;-50
2022/04/02 04:51:45;;;;;;;7.20;3.58;;;;;;;12.32;63.62;99111.44;5022120;28;103937;-50
2022/04/02 04:54:12;;;;;;;7.80;3.95;;;;;;;12.32;63.61;99106.00;5023196;28;101703;-50
2022/04/02 04:56:38;;;;;;;8.73;4.15;;;;;;;12.34;63.72;99111.94;5023038;28;102161;-51
2022/04/02 04:59:09;;;;;;;8.40;4.15;;;;;;;12.32;63.56;99112.25;5024834;28;102240;-50
2022/04/02 05:01:36;;;;;;;6.88;3.63;;;;;;;12.33;63.63;99104.84;5024208;28;103970;-50
2022/04/02 05:04:03;;;;;;;7.40;4.22;;;;;;;12.32;63.52;99095.06;5024546;28;101832;-51
2022/04/02 05:06:30;;;;;;;6.63;3.47;;;;;;;12.32;63.63;99086.88;5024523;28;101605;-50
2022/04/02 05:08:57;;;;;;;6.55;3.40;;;;;;;12.32;63.67;99090.41;5025590;28;102072;-51
2022/04/02 05:11:24;;;;;;;8.60;3.30;;;;;;;12.32;63.65;99089.63;5024332;28;104125;-51
2022/04/02 05:13:51;;;;;;;5.28;3.30;;;;;;;12.32;63.42;99106.00;5025092;28;101764;-51
2022/04/02 05:16:19;;;;;;;8.65;3.92;;;;;;;12.34;63.79;99109.22;5023269;28;101650;-51
2022/04/02 05:18:46;;;;;;;7.05;3.58;;;;;;;12.34;63.73;99092.84;5024171;28;102164;-51
2022/04/02 05:21:13;;;;;;;6.28;3.67;;;;;;;12.34;63.73;99092.84;5022472;28;103880;-50
2022/04/02 05:23:40;;;;;;;9.38;3.60;;;;;;;12.33;63.79;99088.47;5023027;28;101804;-51
2022/04/02 05:26:07;;;;;;;6.07;3.53;;;;;;;12.33;63.76;99092.00;5021430;28;101843;-51
2022/04/02 05:28:34;;;;;;;5.10;3.35;;;;;;;12.35;63.60;99091.72;5023881;28;102126;-51
2022/04/02 05:31:00;;;;;;;9.73;5.10;;;;;;;12.35;63.70;99094.44;5022416;28;104006;-50
2022/04/02 05:33:30;;;;;;;7.75;4.50;;;;;;;12.35;63.98;99094.44;5022586;28;101714;-51
2022/04/02 05:35:57;;;;;;;8.07;4.30;;;;;;;12.35;63.56;99116.25;5022683;28;101789;-50
2022/04/02 05:38:23;;;;;;;5.35;3.47;;;;;;;12.36;63.68;99112.41;5023067;28;102176;-51
2022/04/02 05:40:51;;;;;;;6.47;3.33;;;;;;;12.35;63.65;99116.25;5021951;28;103596;-51
2022/04/02 05:43:17;;;;;;;4.43;3.22;;;;;;;12.35;63.83;99106.16;5022059;28;102688;-51
2022/04/02 05:45:47;;;;;;;6.05;3.25;;;;;;;12.36;63.68;99112.41;5021238;28;101783;-51
2022/04/02 05:48:14;;;;;;;4.97;3.42;;;;;;;12.35;63.83;99099.88;5023411;28;101962;-50
2022/04/02 05:50:42;;;;;;;6.30;3.60;;;;;;;12.36;63.47;99101.47;5021457;28;104040;-50
2022/04/02 05:53:09;;;;;;;8.43;3.33;;;;;;;12.35;63.69;99094.44;5022032;28;101582;-50
2022/04/02 05:55:36;;;;;;;9.50;3.58;;;;;;;12.35;63.75;99089.78;5021523;28;101678;-51
2022/04/02 05:58:04;;;;;;;10.35;3.47;;;;;;;12.35;63.83;99089.78;5023093;28;102291;-51
2022/04/02 06:00:31;;;;;;;5.82;3.20;;;;;;;12.35;63.88;99083.53;5021521;28;104090;-51
2022/04/02 06:02:58;;;;;;;6.88;3.17;;;;;;;12.36;63.92;99090.56;5022673;28;101681;-50
2022/04/02 06:05:24;;;;;;;8.52;3.58;;;;;;;12.35;63.85;99078.88;5022263;28;101686;-50
2022/04/02 06:07:52;;;;;;;5.15;3.10;;;;;;;12.35;63.93;99086.25;5023164;28;102167;-51
2022/04/02 06:10:19;;;;;;;6.00;2.90;;;;;;;12.36;63.90;99088.66;5022333;28;103941;-51
2022/04/02 06:12:50;;;;;;;6.57;3.20;;;;;;;12.36;63.79;99088.66;5023100;28;101621;-51
2022/04/02 06:15:16;;;;;;;6.72;3.75;;;;;;;12.37;63.79;99081.25;5022414;28;101731;-50
2022/04/02 06:17:43;;;;;;;6.07;2.70;;;;;;;12.37;63.88;99078.53;5022809;28;102139;-51
2022/04/02 06:20:10;;;;;;;5.95;3.10;;;;;;;12.38;63.63;99091.06;5021716;28;103864;-51
2022/04/02 06:22:37;;;;;;;5.70;3.22;;;;;;;12.37;63.90;99087.53;5022333;28;101717;-52
2022/04/02 06:25:06;;;;;;;5.68;3.13;;;;;;;12.40;63.85;99091.53;5021177;28;102106;-51
2022/04/02 06:27:39;;;;;;;;;;;;;;;12.40;63.73;99091.53;5023010;28;102186;-52
2022/04/02 06:30:07;;;;;;;6.13;3.20;;;;;;;12.41;63.83;99082.25;5021167;28;103902;-51
2022/04/02 06:32:33;;;;;;;4.72;2.50;;;;;;;12.42;63.84;99087.38;5020509;28;101740;-52
2022/04/02 06:35:01;;;;;;;3.45;2.72;;;;;;;12.43;63.91;99090.88;5021483;28;101620;-52
2022/04/02 06:37:32;;;;;;;7.88;2.97;;;;;;;12.45;63.93;99083.19;5022359;28;102129;-52
2022/04/02 06:40:01;;;;;;;7.57;3.30;;;;;;;12.46;63.90;99095.69;5020961;28;104041;-52
2022/04/02 06:42:28;;;;;;;4.68;2.40;;;;;;;12.47;63.79;99092.63;5020929;28;101968;-52
2022/04/02 06:44:56;;;;;;;6.78;3.72;;;;;;;12.48;63.71;99093.47;5021215;28;101762;-52
2022/04/02 06:47:26;;;;;;;4.55;2.90;;;;;;;12.50;63.65;99096.66;5022352;28;101852;-52
2022/04/02 06:49:53;;;;;;;7.50;2.58;;;;;;;12.51;63.93;99092.78;5020616;28;103842;-52
2022/04/02 06:52:20;;;;;;;8.60;3.10;;;;;;;12.52;63.95;99088.97;5021586;28;102142;-52
2022/04/02 06:54:47;;;;;;;5.78;3.10;;;;;;;12.54;63.89;99085.91;5021019;28;101706;-53
2022/04/02 06:57:18;;;;;;;4.55;3.17;;;;;;;12.54;63.88;99083.97;5021932;28;102148;-51
2022/04/02 06:59:46;;;;;;;5.70;2.55;;;;;;;12.55;63.86;99093.78;5020503;28;103920;-51
2022/04/02 07:02:18;;;;;;;5.40;2.70;;;;;;;12.56;63.84;99084.44;5021371;28;102077;-51
2022/04/02 07:04:45;;;;;;;3.88;2.78;;;;;;;12.57;63.98;99085.25;5020949;28;101790;-51
2022/04/02 07:07:28;;;;;;;5.97;2.40;;;;;;;12.58;63.81;99093.09;5021978;28;102002;-51
2022/04/02 07:09:56;;;;;;;8.57;2.67;;;;;;;12.60;63.74;99090.84;5020561;28;104016;-51
2022/04/02 07:12:23;;;;;;;4.55;2.65;;;;;;;12.60;63.81;99088.13;5021125;28;101764;-52
2022/04/02 07:14:51;;;;;;;5.63;2.78;;;;;;;12.62;63.73;99088.63;5020694;28;101712;-51
2022/04/02 07:17:19;;;;;;;4.57;2.60;;;;;;;12.62;63.93;99088.63;5021821;28;101942;-51
2022/04/02 07:19:47;;;;;;;4.22;2.47;;;;;;;12.62;63.81;99091.34;5020285;28;103825;-52
2022/04/02 07:22:14;;;;;;;5.85;2.92;;;;;;;12.63;63.92;99084.75;5021163;28;101798;-51
2022/04/02 07:24:41;;;;;;;4.43;2.67;;;;;;;12.64;63.63;99089.09;5020806;28;101696;-51
2022/04/02 07:27:08;;;;;;;4.20;2.42;;;;;;;12.65;63.77;99093.41;5021911;28;102173;-52
2022/04/02 07:29:35;;;;;;;5.05;2.55;;;;;;;12.65;63.71;99096.13;5018826;28;103931;-51
2022/04/02 07:32:07;;;;;;;5.82;2.83;;;;;;;12.67;63.72;99091.16;5020913;28;101721;-52
2022/04/02 07:34:33;;;;;;;3.70;2.33;;;;;;;12.67;63.79;99088.44;5020419;28;101557;-52
2022/04/02 07:37:08;;;;;;;5.25;2.40;;;;;;;12.69;63.77;99104.47;5022027;28;102042;-51
2022/04/02 07:39:42;;;;;;;5.22;2.45;;;;;;;12.70;63.74;99101.44;5023361;28;103816;-51
2022/04/02 07:42:18;;;;;;;4.93;2.15;;;;;;;12.71;63.90;99103.03;5023876;28;101581;-51
2022/04/02 07:45:01;;;;;;;4.65;2.15;;;;;;;12.72;63.70;99095.66;5023813;28;101592;-51
2022/04/02 07:47:31;;;;;;;6.03;2.28;;;;;;;12.72;63.68;99093.72;5024921;28;101928;-51
2022/04/02 07:50:01;;;;;;;4.45;2.15;;;;;;;12.73;63.81;99100.78;5023323;28;103994;-52
2022/04/02 07:52:28;;;;;;;5.43;2.50;;;;;;;12.75;63.74;99106.72;5024250;28;101755;-52
2022/04/02 07:54:57;;;;;;;4.50;2.28;;;;;;;12.77;63.83;99105.59;5023694;28;101643;-51
2022/04/02 07:57:31;;;;;;;4.50;2.15;;;;;;;12.77;63.73;99105.59;5024624;28;102091;-52
2022/04/02 08:00:03;;;;;;;6.03;2.40;;;;;;;12.78;63.89;99102.53;5023412;28;103829;-52
2022/04/02 08:02:38;;;;;;;4.25;2.40;;;;;;;12.78;63.68;99101.75;5023975;28;101933;-52
2022/04/02 08:05:10;;;;;;;6.68;2.53;;;;;;;12.79;63.79;99111.53;5023680;28;101798;-51
2022/04/02 08:07:38;;;;;;;5.35;2.65;;;;;;;12.78;63.88;99118.13;5024706;28;101828;-51
2022/04/02 08:10:07;;;;;;;4.30;2.38;;;;;;;12.78;63.78;99104.47;5023240;28;103920;-52
2022/04/02 08:12:34;;;;;;;5.25;2.67;;;;;;;12.78;63.86;99118.13;5023647;28;101693;-52
2022/04/02 08:15:03;;;;;;;4.43;2.33;;;;;;;12.78;63.91;99107.19;5023582;28;101822;-52
2022/04/02 08:17:34;;;;;;;4.05;2.08;;;;;;;12.77;63.85;99108.34;5024492;28;102124;-52
2022/04/02 08:20:01;;;;;;;5.60;2.28;;;;;;;12.78;64.03;99107.19;5023094;28;103815;-52
2022/04/02 08:22:28;;;;;;;4.38;1.95;;;;;;;12.78;63.89;99101.75;5023773;28;101680;-52
2022/04/02 08:24:56;;;;;;;4.88;2.05;;;;;;;12.78;64.10;99108.00;5023136;28;101732;-52
2022/04/02 08:27:32;;;;;;;4.65;2.22;;;;;;;12.75;63.82;99103.97;5024640;28;102063;-52
2022/04/02 08:30:05;;;;;;;3.60;2.15;;;;;;;12.77;63.98;99108.34;5022705;28;104084;-52
2022/04/02 08:32:47;;;;;;;5.15;2.40;;;;;;;12.75;63.70;99109.44;5023656;28;101682;-51
2022/04/02 08:35:20;;;;;;;3.45;1.92;;;;;;;12.75;64.08;99103.97;5023145;28;101586;-52
2022/04/02 08:38:02;;;;;;;5.50;2.35;;;;;;;12.75;63.88;99109.44;5024042;28;101935;-52
2022/04/02 08:41:05;;;;;;;4.75;2.55;;;;;;;12.73;63.98;99100.78;5022898;28;104011;-52
2022/04/02 08:44:10;;;;;;;4.95;2.58;;;;;;;12.73;63.96;99092.59;4974094;28;101955;-52
2022/04/02 08:47:01;;;;;;;4.65;2.47;;;;;;;12.73;64.17;99095.34;5022989;28;101648;-52
2022/04/02 08:49:39;;;;;;;3.55;2.53;;;;;;;12.73;64.15;99089.06;5023612;28;102068;-51
2022/04/02 08:52:21;;;;;;;4.38;2.28;;;;;;;12.72;64.09;99090.97;5022546;28;103901;-52
2022/04/02 08:55:02;;;;;;;4.88;2.20;;;;;;;12.73;64.12;99083.63;5023311;28;101650;-52
2022/04/02 08:57:32;;;;;;;5.63;2.25;;;;;;;12.73;64.17;99089.88;5022714;28;101746;-52
2022/04/02 09:00:05;;;;;;;4.43;2.22;;;;;;;12.73;64.16;99078.97;5024151;28;102148;-51
2022/04/02 09:02:57;;;;;;;7.32;2.47;;;;;;;12.73;64.32;99084.41;5022420;28;104048;-51
2022/04/02 09:05:33;;;;;;;4.40;1.92;;;;;;;12.74;64.30;99066.09;5023170;28;101754;-52
2022/04/02 09:08:23;;;;;;;4.53;2.20;;;;;;;12.73;64.25;99072.69;5021611;28;101770;-52
2022/04/02 09:11:23;;;;;;;6.50;2.20;;;;;;;12.73;64.32;99065.31;5023598;28;101921;-51
2022/04/02 09:14:22;;;;;;;4.90;2.25;;;;;;;12.73;64.26;99061.78;5021926;28;104092;-51
2022/04/02 09:17:13;;;;;;;5.10;2.08;;;;;;;12.73;64.30;99061.78;5022937;28;101784;-51
2022/04/02 09:19:51;;;;;;;3.85;2.15;;;;;;;12.73;64.42;99061.78;5022599;28;101677;-52
2022/04/02 09:22:32;;;;;;;6.32;2.47;;;;;;;12.73;64.13;99064.50;5023551;28;101978;-52
2022/04/02 09:25:31;;;;;;;3.22;2.03;;;;;;;12.72;64.20;99065.63;5022161;28;104105;-52
2022/04/02 09:28:27;;;;;;;3.28;2.00;;;;;;;12.72;64.16;99057.44;5022724;28;101793;-52
2022/04/02 09:31:24;;;;;;;4.25;2.25;;;;;;;12.71;64.33;99059.38;5022064;28;101770;-52
2022/04/02 09:34:47;;;;;;;3.63;2.00;;;;;;;12.72;64.14;99057.44;5023428;28;101935;-51
2022/04/02 09:37:28;;;;;;;3.47;2.00;;;;;;;12.71;64.42;99059.38;5020299;28;104279;-52
2022/04/02 09:40:04;;;;;;;3.95;1.73;;;;;;;12.71;64.27;99064.81;5022718;28;101700;-52
2022/04/02 09:42:37;;;;;;;5.22;2.15;;;;;;;12.71;64.46;99070.28;5021615;28;102056;-51
2022/04/02 09:45:08;;;;;;;4.32;1.83;;;;;;;12.72;64.27;99071.06;5023316;28;102103;-52
2022/04/02 09:47:57;;;;;;;4.13;2.17;;;;;;;12.70;64.35;99062.44;5021650;28;103991;-52
2022/04/02 09:50:25;;;;;;;4.07;1.80;;;;;;;12.71;64.71;99072.22;5022370;28;101710;-52
2022/04/02 09:52:55;;;;;;;3.88;1.83;;;;;;;12.70;64.40;99074.16;5021862;28;101637;-52
2022/04/02 09:55:26;;;;;;;5.25;2.28;;;;;;;12.71;64.46;99075.75;5023164;28;102144;-52
2022/04/02 09:58:44;;;;;;;4.82;2.00;;;;;;;12.70;64.28;99079.59;5021572;28;103542;-51
2022/04/02 10:01:25;;;;;;;4.32;1.83;;;;;;;12.71;64.39;99081.19;4995737;28;101639;-51
2022/04/02 10:03:57;;;;;;;3.88;2.00;;;;;;;12.71;64.53;99078.47;5021905;28;101745;-52
2022/04/02 10:06:25;;;;;;;4.38;2.13;;;;;;;12.70;64.48;99085.06;5023201;28;102072;-51
2022/04/02 10:09:03;;;;;;;4.32;1.75;;;;;;;12.71;64.16;99091.31;5021461;28;103927;-51
2022/04/02 10:11:34;;;;;;;3.33;2.17;;;;;;;12.71;64.51;99103.03;5022195;28;101701;-52
2022/04/02 10:14:03;;;;;;;1.55;1.42;;;;;;;12.70;64.27;99106.91;5021582;28;101759;-51
2022/04/02 10:16:31;;;;;;;4.57;1.80;;;;;;;12.70;64.21;99115.09;5024812;28;101579;-52
2022/04/02 10:18:59;;;;;;;3.65;1.90;;;;;;;12.69;64.48;99113.50;5023767;28;103947;-52
2022/04/02 10:21:27;;;;;;;4.00;1.42;;;;;;;12.70;64.57;99117.81;5024334;28;101680;-52
2022/04/02 10:24:04;;;;;;;6.28;1.98;;;;;;;12.70;64.63;99126.00;5023478;28;101914;-51
2022/04/02 10:26:37;;;;;;;3.75;2.13;;;;;;;12.69;64.45;99121.69;5025210;28;101764;-51
2022/04/02 10:29:10;;;;;;;5.78;2.00;;;;;;;12.69;64.56;99118.94;5022307;28;103077;-51
2022/04/02 10:31:40;;;;;;;3.10;1.67;;;;;;;12.69;64.60;99118.94;5022542;28;101769;-52
2022/04/02 10:34:10;;;;;;;4.15;1.88;;;;;;;12.69;64.59;99121.69;5021766;28;101796;-51
2022/04/02 10:36:40;;;;;;;2.47;1.52;;;;;;;12.68;64.61;99120.06;5022866;28;102183;-52
2022/04/02 10:39:08;;;;;;;4.15;1.95;;;;;;;12.69;64.74;99131.78;5021437;28;104149;-51
2022/04/02 10:41:40;;;;;;;4.57;1.98;;;;;;;12.69;64.53;99132.59;5021615;28;101748;-51
2022/04/02 10:44:11;;;;;;;4.00;2.30;;;;;;;12.70;64.53;99138.84;5021774;28;101975;-51
2022/04/02 10:46:41;;;;;;;5.03;1.98;;;;;;;12.69;64.59;99139.97;5022869;28;101834;-52
2022/04/02 10:49:12;;;;;;;4.50;2.10;;;;;;;12.68;64.74;99133.69;5021301;28;103896;-51
2022/04/02 10:51:42;;;;;;;4.35;1.95;;;;;;;12.69;64.62;99132.59;5021857;28;101884;-51
2022/04/02 10:54:13;;;;;;;7.55;2.00;;;;;;;12.69;64.61;99124.41;5021285;28;101742;-52
2022/04/02 10:56:41;;;;;;;;;;;;;;;12.68;64.65;99125.50;5022856;28;102255;-52
2022/04/02 10:59:09;;;;;;;3.92;2.05;;;;;;;12.69;64.66;99127.13;5020639;28;104027;-52
2022/04/02 11:01:39;;;;;;;4.43;2.38;;;;;;;12.69;64.83;99127.13;5021665;28;101846;-52
2022/04/02 11:04:24;;;;;;;4.93;1.50;;;;;;;12.70;64.71;99122.47;5020882;28;102136;-52
2022/04/02 11:06:51;;;;;;;4.88;2.03;;;;;;;12.70;64.60;99122.47;5022471;28;102087;-52
2022/04/02 11:09:30;;;;;;;2.55;1.63;;;;;;;12.70;64.64;99128.72;5020613;28;103945;-52
2022/04/02 11:12:02;;;;;;;3.47;1.92;;;;;;;12.70;64.95;99128.72;5021370;28;101816;-53
2022/04/02 11:14:37;;;;;;;2.83;1.70;;;;;;;12.70;64.78;99133.41;5020642;28;101699;-52
2022/04/02 11:17:04;;;;;;;3.10;1.70;;;;;;;12.70;64.77;99126.00;5021894;28;101920;-52
2022/04/02 11:22:24;;;;;;;;;;;;;;;12.71;64.73;99124.88;5021649;28;101761;-52
2022/04/02 11:25:01;;;;;;;2.40;1.80;;;;;;;12.70;64.81;99130.66;5021246;28;101777;-51
2022/04/02 11:27:35;;;;;;;4.03;1.60;;;;;;;12.70;64.77;99123.28;5022701;28;102099;-52
2022/04/02 11:30:05;;;;;;;3.03;1.90;;;;;;;12.71;64.84;99115.88;5021302;28;103932;-51
2022/04/02 11:32:40;;;;;;;3.10;1.80;;;;;;;12.72;64.95;99125.66;5021578;28;101801;-52
2022/04/02 11:35:12;;;;;;;3.63;1.90;;;;;;;12.71;64.85;99124.88;5021173;28;101653;-52
2022/04/02 11:37:53;;;;;;;3.00;1.55;;;;;;;12.71;64.79;99129.53;5022218;28;101999;-52
2022/04/02 11:40:27;;;;;;;3.13;1.80;;;;;;;12.71;64.73;99119.41;5020562;28;104049;-52
2022/04/02 11:42:59;;;;;;;3.03;1.52;;;;;;;12.71;64.83;99130.31;5020402;28;101673;-51
2022/04/02 11:45:26;;;;;;;2.17;1.70;;;;;;;12.71;64.74;99130.31;5020833;28;101682;-51